sensor_id;sensor_type;location;lat;lon;timestamp;temperature;humidity
16154;DHT22;8182;55.648;13.208;2024-01-06T00:02:19;-5.30;1.00
16154;DHT22;8182;55.648;13.208;2024-01-06T00:04:46;-5.30;1.00
16154;DHT22;8182;55.648;13.208;2024-01-06T00:07:13;-5.30;1.00
16154;DHT22;8182;55.648;13.208;2024-01-06T00:09:42;-5.30;1.00
16154;DHT22;8182;55.648;13.208;2024-01-06T00:12:08;-5.30;1.00
16154;DHT22;8182;55.648;13.208;2024-01-06T00:14:36;-5.30;1.00
16154;DHT22;8182;55.648;13.208;2024-01-06T00:17:03;-5.30;1.00
16154;DHT22;8182;55.648;13.208;2024-01-06T00:19:30;-5.30;1.00
16154;DHT22;8182;55.648;13.208;2024-01-06T00:21:57;-5.40;1.00
16154;DHT22;8182;55.648;13.208;2024-01-06T00:24:26;-5.40;1.00
16154;DHT22;8182;55.648;13.208;2024-01-06T00:26:54;-5.40;1.00
16154;DHT22;8182;55.648;13.208;2024-01-06T00:29:21;-5.40;1.00
16154;DHT22;8182;55.648;13.208;2024-01-06T00:31:48;-5.40;1.00
16154;DHT22;8182;55.648;13.208;2024-01-06T00:34:15;-5.50;1.00
16154;DHT22;8182;55.648;13.208;2024-01-06T00:36:42;-5.50;1.00
16154;DHT22;8182;55.648;13.208;2024-01-06T00:39:09;-5.50;1.00
16154;DHT22;8182;55.648;13.208;2024-01-06T00:41:39;-5.50;1.00
16154;DHT22;8182;55.648;13.208;2024-01-06T00:44:08;-5.50;1.00
16154;DHT22;8182;55.648;13.208;2024-01-06T00:46:35;-5.50;1.00
16154;DHT22;8182;55.648;13.208;2024-01-06T00:49:02;-5.50;1.00
16154;DHT22;8182;55.648;13.208;2024-01-06T00:51:29;-5.50;1.00
16154;DHT22;8182;55.648;13.208;2024-01-06T00:53:56;-5.50;1.00
16154;DHT22;8182;55.648;13.208;2024-01-06T00:56:23;-5.50;1.00
16154;DHT22;8182;55.648;13.208;2024-01-06T00:58:50;-5.50;1.00
16154;DHT22;8182;55.648;13.208;2024-01-06T01:01:19;-5.50;1.00
16154;DHT22;8182;55.648;13.208;2024-01-06T01:03:45;-5.50;1.00
16154;DHT22;8182;55.648;13.208;2024-01-06T01:06:12;-5.50;1.00
16154;DHT22;8182;55.648;13.208;2024-01-06T01:08:39;-5.50;1.00
16154;DHT22;8182;55.648;13.208;2024-01-06T01:11:06;-5.50;1.00
16154;DHT22;8182;55.648;13.208;2024-01-06T01:13:33;-5.50;1.00
16154;DHT22;8182;55.648;13.208;2024-01-06T01:16:00;-5.50;1.00
16154;DHT22;8182;55.648;13.208;2024-01-06T01:18:29;-5.50;1.00
16154;DHT22;8182;55.648;13.208;2024-01-06T01:20:56;-5.50;1.00
16154;DHT22;8182;55.648;13.208;2024-01-06T01:23:27;-5.50;1.00
16154;DHT22;8182;55.648;13.208;2024-01-06T01:25:54;-5.50;1.00
16154;DHT22;8182;55.648;13.208;2024-01-06T01:28:21;-5.50;1.00
16154;DHT22;8182;55.648;13.208;2024-01-06T01:30:48;-5.50;1.00
16154;DHT22;8182;55.648;13.208;2024-01-06T01:33:15;-5.50;1.00
16154;DHT22;8182;55.648;13.208;2024-01-06T01:35:44;-5.50;1.00
16154;DHT22;8182;55.648;13.208;2024-01-06T01:38:11;-5.50;1.00
16154;DHT22;8182;55.648;13.208;2024-01-06T01:40:38;-5.50;1.00
16154;DHT22;8182;55.648;13.208;2024-01-06T01:43:04;-5.50;1.00
16154;DHT22;8182;55.648;13.208;2024-01-06T01:45:32;-5.50;1.00
16154;DHT22;8182;55.648;13.208;2024-01-06T01:47:59;-5.50;1.00
16154;DHT22;8182;55.648;13.208;2024-01-06T01:50:26;-5.40;1.00
16154;DHT22;8182;55.648;13.208;2024-01-06T01:52:58;-5.40;1.00
16154;DHT22;8182;55.648;13.208;2024-01-06T01:55:25;-5.40;1.00
16154;DHT22;8182;55.648;13.208;2024-01-06T01:57:53;-5.40;1.00
16154;DHT22;8182;55.648;13.208;2024-01-06T02:00:20;-5.40;1.00
16154;DHT22;8182;55.648;13.208;2024-01-06T02:02:47;-5.40;1.00
16154;DHT22;8182;55.648;13.208;2024-01-06T02:05:17;-5.40;1.00
16154;DHT22;8182;55.648;13.208;2024-01-06T02:07:44;-5.40;1.00
16154;DHT22;8182;55.648;13.208;2024-01-06T02:10:12;-5.50;1.00
16154;DHT22;8182;55.648;13.208;2024-01-06T02:12:39;-5.50;1.00
16154;DHT22;8182;55.648;13.208;2024-01-06T02:15:07;-5.40;1.00
16154;DHT22;8182;55.648;13.208;2024-01-06T02:17:33;-5.40;1.00
16154;DHT22;8182;55.648;13.208;2024-01-06T02:20:00;-5.40;1.00
16154;DHT22;8182;55.648;13.208;2024-01-06T02:22:29;-5.40;1.00
16154;DHT22;8182;55.648;13.208;2024-01-06T02:24:56;-5.40;1.00
16154;DHT22;8182;55.648;13.208;2024-01-06T02:27:23;-5.40;1.00
16154;DHT22;8182;55.648;13.208;2024-01-06T02:29:50;-5.40;1.00
16154;DHT22;8182;55.648;13.208;2024-01-06T02:32:17;-5.50;1.00
16154;DHT22;8182;55.648;13.208;2024-01-06T02:34:44;-5.50;1.00
16154;DHT22;8182;55.648;13.208;2024-01-06T02:37:11;-5.50;1.00
16154;DHT22;8182;55.648;13.208;2024-01-06T02:39:39;-5.50;1.00
16154;DHT22;8182;55.648;13.208;2024-01-06T02:42:06;-5.40;1.00
16154;DHT22;8182;55.648;13.208;2024-01-06T02:44:33;-5.40;1.00
16154;DHT22;8182;55.648;13.208;2024-01-06T02:47:03;-5.40;1.00
16154;DHT22;8182;55.648;13.208;2024-01-06T02:49:30;-5.40;1.00
16154;DHT22;8182;55.648;13.208;2024-01-06T02:51:57;-5.40;1.00
16154;DHT22;8182;55.648;13.208;2024-01-06T02:54:24;-5.40;1.00
16154;DHT22;8182;55.648;13.208;2024-01-06T02:56:52;-5.40;1.00
16154;DHT22;8182;55.648;13.208;2024-01-06T02:59:19;-5.40;1.00
16154;DHT22;8182;55.648;13.208;2024-01-06T03:01:46;-5.40;1.00
16154;DHT22;8182;55.648;13.208;2024-01-06T03:04:13;-5.40;1.00
16154;DHT22;8182;55.648;13.208;2024-01-06T03:06:40;-5.50;1.00
16154;DHT22;8182;55.648;13.208;2024-01-06T03:09:07;-5.50;1.00
16154;DHT22;8182;55.648;13.208;2024-01-06T03:11:34;-5.50;1.00
16154;DHT22;8182;55.648;13.208;2024-01-06T03:14:02;-5.50;1.00
16154;DHT22;8182;55.648;13.208;2024-01-06T03:16:29;-5.60;1.00
16154;DHT22;8182;55.648;13.208;2024-01-06T03:18:56;-5.60;1.00
16154;DHT22;8182;55.648;13.208;2024-01-06T03:21:23;-5.60;1.00
16154;DHT22;8182;55.648;13.208;2024-01-06T03:23:52;-5.50;1.00
16154;DHT22;8182;55.648;13.208;2024-01-06T03:26:21;-5.60;1.00
16154;DHT22;8182;55.648;13.208;2024-01-06T03:28:54;-5.60;1.00
16154;DHT22;8182;55.648;13.208;2024-01-06T03:31:22;-5.60;1.00
16154;DHT22;8182;55.648;13.208;2024-01-06T03:33:49;-5.70;1.00
16154;DHT22;8182;55.648;13.208;2024-01-06T03:36:17;-5.60;1.00
16154;DHT22;8182;55.648;13.208;2024-01-06T03:38:44;-5.70;1.00
16154;DHT22;8182;55.648;13.208;2024-01-06T03:41:11;-5.70;1.00
16154;DHT22;8182;55.648;13.208;2024-01-06T03:43:37;-5.80;1.00
16154;DHT22;8182;55.648;13.208;2024-01-06T03:46:05;-5.90;1.00
16154;DHT22;8182;55.648;13.208;2024-01-06T03:48:33;-5.90;1.00
16154;DHT22;8182;55.648;13.208;2024-01-06T03:51:01;-5.90;1.00
16154;DHT22;8182;55.648;13.208;2024-01-06T03:53:28;-5.90;1.00
16154;DHT22;8182;55.648;13.208;2024-01-06T03:55:55;-6.00;1.00
16154;DHT22;8182;55.648;13.208;2024-01-06T03:58:22;-6.10;1.00
16154;DHT22;8182;55.648;13.208;2024-01-06T04:00:49;-6.10;1.00
16154;DHT22;8182;55.648;13.208;2024-01-06T04:03:16;-6.00;1.00
16154;DHT22;8182;55.648;13.208;2024-01-06T04:05:44;-6.10;1.00
16154;DHT22;8182;55.648;13.208;2024-01-06T04:08:11;-6.10;1.00
16154;DHT22;8182;55.648;13.208;2024-01-06T04:10:38;-6.10;1.00
16154;DHT22;8182;55.648;13.208;2024-01-06T04:13:07;-6.10;1.00
16154;DHT22;8182;55.648;13.208;2024-01-06T04:15:34;-6.00;1.00
16154;DHT22;8182;55.648;13.208;2024-01-06T04:18:03;-6.10;1.00
16154;DHT22;8182;55.648;13.208;2024-01-06T04:20:30;-6.00;1.00
16154;DHT22;8182;55.648;13.208;2024-01-06T04:22:59;-6.10;1.00
16154;DHT22;8182;55.648;13.208;2024-01-06T04:25:26;-6.10;1.00
16154;DHT22;8182;55.648;13.208;2024-01-06T04:27:53;-6.00;1.00
16154;DHT22;8182;55.648;13.208;2024-01-06T04:30:20;-6.10;1.00
16154;DHT22;8182;55.648;13.208;2024-01-06T04:32:47;-6.20;1.00
16154;DHT22;8182;55.648;13.208;2024-01-06T04:35:14;-6.40;1.00
16154;DHT22;8182;55.648;13.208;2024-01-06T04:37:41;-6.30;1.00
16154;DHT22;8182;55.648;13.208;2024-01-06T04:40:11;-6.40;1.00
16154;DHT22;8182;55.648;13.208;2024-01-06T04:42:38;-6.50;1.00
16154;DHT22;8182;55.648;13.208;2024-01-06T04:45:06;-6.70;1.00
16154;DHT22;8182;55.648;13.208;2024-01-06T04:47:34;-6.80;1.00
16154;DHT22;8182;55.648;13.208;2024-01-06T04:50:00;-6.90;1.00
16154;DHT22;8182;55.648;13.208;2024-01-06T04:52:28;-7.00;1.00
16154;DHT22;8182;55.648;13.208;2024-01-06T04:54:55;-6.80;1.00
16154;DHT22;8182;55.648;13.208;2024-01-06T04:57:24;-6.90;1.00
16154;DHT22;8182;55.648;13.208;2024-01-06T04:59:51;-7.10;1.00
16154;DHT22;8182;55.648;13.208;2024-01-06T05:02:18;-7.10;1.00
16154;DHT22;8182;55.648;13.208;2024-01-06T05:04:45;-7.10;1.00
16154;DHT22;8182;55.648;13.208;2024-01-06T05:07:12;-7.30;1.00
16154;DHT22;8182;55.648;13.208;2024-01-06T05:09:39;-7.20;1.00
16154;DHT22;8182;55.648;13.208;2024-01-06T05:12:06;-7.20;1.00
16154;DHT22;8182;55.648;13.208;2024-01-06T05:14:35;-7.30;1.00
16154;DHT22;8182;55.648;13.208;2024-01-06T05:17:02;-7.30;1.00
16154;DHT22;8182;55.648;13.208;2024-01-06T05:19:29;-7.30;1.00
16154;DHT22;8182;55.648;13.208;2024-01-06T05:21:56;-7.30;1.00
16154;DHT22;8182;55.648;13.208;2024-01-06T05:24:23;-7.30;1.00
16154;DHT22;8182;55.648;13.208;2024-01-06T05:26:50;-7.30;1.00
16154;DHT22;8182;55.648;13.208;2024-01-06T05:29:17;-7.30;1.00
16154;DHT22;8182;55.648;13.208;2024-01-06T05:31:45;-7.30;1.00
16154;DHT22;8182;55.648;13.208;2024-01-06T05:34:14;-7.40;1.00
16154;DHT22;8182;55.648;13.208;2024-01-06T05:36:41;-7.40;1.00
16154;DHT22;8182;55.648;13.208;2024-01-06T05:39:08;-7.40;1.00
16154;DHT22;8182;55.648;13.208;2024-01-06T05:41:38;-7.40;1.00
16154;DHT22;8182;55.648;13.208;2024-01-06T05:44:06;-7.30;1.00
16154;DHT22;8182;55.648;13.208;2024-01-06T05:46:34;-7.40;1.00
16154;DHT22;8182;55.648;13.208;2024-01-06T05:49:02;-7.30;1.00
16154;DHT22;8182;55.648;13.208;2024-01-06T05:51:30;-7.30;1.00
16154;DHT22;8182;55.648;13.208;2024-01-06T05:53:57;-7.20;1.00
16154;DHT22;8182;55.648;13.208;2024-01-06T05:56:24;-7.20;1.00
16154;DHT22;8182;55.648;13.208;2024-01-06T05:58:52;-7.30;1.00
16154;DHT22;8182;55.648;13.208;2024-01-06T06:01:19;-7.20;1.00
16154;DHT22;8182;55.648;13.208;2024-01-06T06:03:47;-7.30;1.00
16154;DHT22;8182;55.648;13.208;2024-01-06T06:06:17;-7.20;1.00
16154;DHT22;8182;55.648;13.208;2024-01-06T06:08:45;-7.20;1.00
16154;DHT22;8182;55.648;13.208;2024-01-06T06:11:14;-7.20;1.00
16154;DHT22;8182;55.648;13.208;2024-01-06T06:13:41;-7.10;1.00
16154;DHT22;8182;55.648;13.208;2024-01-06T06:16:09;-7.20;1.00
16154;DHT22;8182;55.648;13.208;2024-01-06T06:18:37;-7.20;1.00
16154;DHT22;8182;55.648;13.208;2024-01-06T06:21:05;-7.30;1.00
16154;DHT22;8182;55.648;13.208;2024-01-06T06:23:35;-7.30;1.00
16154;DHT22;8182;55.648;13.208;2024-01-06T06:26:05;-7.40;1.00
16154;DHT22;8182;55.648;13.208;2024-01-06T06:28:32;-7.50;1.00
16154;DHT22;8182;55.648;13.208;2024-01-06T06:31:00;-7.50;1.00
16154;DHT22;8182;55.648;13.208;2024-01-06T06:33:27;-7.60;1.00
16154;DHT22;8182;55.648;13.208;2024-01-06T06:35:53;-7.50;1.00
16154;DHT22;8182;55.648;13.208;2024-01-06T06:38:25;-7.60;1.00
16154;DHT22;8182;55.648;13.208;2024-01-06T06:40:53;-7.60;1.00
16154;DHT22;8182;55.648;13.208;2024-01-06T06:43:20;-7.60;1.00
16154;DHT22;8182;55.648;13.208;2024-01-06T06:45:47;-7.70;1.00
16154;DHT22;8182;55.648;13.208;2024-01-06T06:48:14;-7.70;1.00
16154;DHT22;8182;55.648;13.208;2024-01-06T06:50:41;-7.70;1.00
16154;DHT22;8182;55.648;13.208;2024-01-06T06:53:09;-7.80;1.00
16154;DHT22;8182;55.648;13.208;2024-01-06T06:55:36;-7.80;1.00
16154;DHT22;8182;55.648;13.208;2024-01-06T06:58:05;-7.80;1.00
16154;DHT22;8182;55.648;13.208;2024-01-06T07:00:32;-7.90;1.00
16154;DHT22;8182;55.648;13.208;2024-01-06T07:02:59;-7.90;1.00
16154;DHT22;8182;55.648;13.208;2024-01-06T07:05:26;-8.00;1.00
16154;DHT22;8182;55.648;13.208;2024-01-06T07:07:53;-7.90;1.00
16154;DHT22;8182;55.648;13.208;2024-01-06T07:10:20;-7.90;1.00
16154;DHT22;8182;55.648;13.208;2024-01-06T07:12:47;-7.80;1.00
16154;DHT22;8182;55.648;13.208;2024-01-06T07:15:15;-7.80;1.00
16154;DHT22;8182;55.648;13.208;2024-01-06T07:17:42;-7.90;1.00
16154;DHT22;8182;55.648;13.208;2024-01-06T07:20:10;-7.90;1.00
16154;DHT22;8182;55.648;13.208;2024-01-06T07:22:37;-7.80;1.00
16154;DHT22;8182;55.648;13.208;2024-01-06T07:25:04;-8.00;1.00
16154;DHT22;8182;55.648;13.208;2024-01-06T07:27:33;-7.90;1.00
16154;DHT22;8182;55.648;13.208;2024-01-06T07:29:59;-7.90;1.00
16154;DHT22;8182;55.648;13.208;2024-01-06T07:32:28;-7.90;1.00
16154;DHT22;8182;55.648;13.208;2024-01-06T07:34:55;-7.90;1.00
16154;DHT22;8182;55.648;13.208;2024-01-06T07:37:22;-8.00;1.00
16154;DHT22;8182;55.648;13.208;2024-01-06T07:39:49;-8.00;1.00
16154;DHT22;8182;55.648;13.208;2024-01-06T07:42:16;-7.80;1.00
16154;DHT22;8182;55.648;13.208;2024-01-06T07:44:43;-7.90;1.00
16154;DHT22;8182;55.648;13.208;2024-01-06T07:47:11;-8.00;1.00
16154;DHT22;8182;55.648;13.208;2024-01-06T07:49:39;-7.90;1.00
16154;DHT22;8182;55.648;13.208;2024-01-06T07:52:06;-8.00;1.00
16154;DHT22;8182;55.648;13.208;2024-01-06T07:54:34;-8.10;1.00
16154;DHT22;8182;55.648;13.208;2024-01-06T07:57:00;-8.00;1.00
16154;DHT22;8182;55.648;13.208;2024-01-06T07:59:27;-8.00;1.00
16154;DHT22;8182;55.648;13.208;2024-01-06T08:01:58;-7.90;1.00
16154;DHT22;8182;55.648;13.208;2024-01-06T08:04:25;-8.00;1.00
16154;DHT22;8182;55.648;13.208;2024-01-06T08:06:53;-8.00;1.00
16154;DHT22;8182;55.648;13.208;2024-01-06T08:09:21;-8.10;1.00
16154;DHT22;8182;55.648;13.208;2024-01-06T08:11:49;-8.10;1.00
16154;DHT22;8182;55.648;13.208;2024-01-06T08:14:16;-8.00;1.00
16154;DHT22;8182;55.648;13.208;2024-01-06T08:16:43;-7.90;1.00
16154;DHT22;8182;55.648;13.208;2024-01-06T08:19:10;-8.10;1.00
16154;DHT22;8182;55.648;13.208;2024-01-06T08:21:37;-8.10;1.00
16154;DHT22;8182;55.648;13.208;2024-01-06T08:24:06;-8.00;1.00
16154;DHT22;8182;55.648;13.208;2024-01-06T08:26:33;-8.10;1.00
16154;DHT22;8182;55.648;13.208;2024-01-06T08:29:00;-7.90;1.00
16154;DHT22;8182;55.648;13.208;2024-01-06T08:31:27;-7.80;1.00
16154;DHT22;8182;55.648;13.208;2024-01-06T08:33:54;-8.00;1.00
16154;DHT22;8182;55.648;13.208;2024-01-06T08:36:21;-8.20;1.00
16154;DHT22;8182;55.648;13.208;2024-01-06T08:38:48;-8.10;1.00
16154;DHT22;8182;55.648;13.208;2024-01-06T08:41:16;-8.20;1.00
16154;DHT22;8182;55.648;13.208;2024-01-06T08:43:44;-8.20;1.00
16154;DHT22;8182;55.648;13.208;2024-01-06T08:46:11;-8.00;1.00
16154;DHT22;8182;55.648;13.208;2024-01-06T08:48:38;-8.00;1.00
16154;DHT22;8182;55.648;13.208;2024-01-06T08:51:05;-8.20;1.00
16154;DHT22;8182;55.648;13.208;2024-01-06T08:53:32;-8.10;1.00
16154;DHT22;8182;55.648;13.208;2024-01-06T08:55:59;-8.00;1.00
16154;DHT22;8182;55.648;13.208;2024-01-06T08:58:27;-8.00;1.00
16154;DHT22;8182;55.648;13.208;2024-01-06T09:00:54;-8.10;1.00
16154;DHT22;8182;55.648;13.208;2024-01-06T09:03:21;-8.10;1.00
16154;DHT22;8182;55.648;13.208;2024-01-06T09:05:51;-7.90;1.00
16154;DHT22;8182;55.648;13.208;2024-01-06T09:08:18;-7.00;1.00
16154;DHT22;8182;55.648;13.208;2024-01-06T09:10:46;-5.90;1.00
16154;DHT22;8182;55.648;13.208;2024-01-06T09:13:13;-5.50;1.00
16154;DHT22;8182;55.648;13.208;2024-01-06T09:15:41;-6.30;1.00
16154;DHT22;8182;55.648;13.208;2024-01-06T09:18:08;-6.80;1.00
16154;DHT22;8182;55.648;13.208;2024-01-06T09:20:35;-6.90;1.00
16154;DHT22;8182;55.648;13.208;2024-01-06T09:23:02;-6.90;1.00
16154;DHT22;8182;55.648;13.208;2024-01-06T09:25:30;-6.80;1.00
16154;DHT22;8182;55.648;13.208;2024-01-06T09:28:00;-6.90;1.00
16154;DHT22;8182;55.648;13.208;2024-01-06T09:30:27;-6.90;1.00
16154;DHT22;8182;55.648;13.208;2024-01-06T09:32:56;-6.80;1.00
16154;DHT22;8182;55.648;13.208;2024-01-06T09:35:24;-6.70;1.00
16154;DHT22;8182;55.648;13.208;2024-01-06T09:37:51;-6.60;1.00
16154;DHT22;8182;55.648;13.208;2024-01-06T09:40:22;-6.40;1.00
16154;DHT22;8182;55.648;13.208;2024-01-06T09:42:49;-5.80;1.00
16154;DHT22;8182;55.648;13.208;2024-01-06T09:45:16;-5.80;1.00
16154;DHT22;8182;55.648;13.208;2024-01-06T09:47:49;-5.80;1.00
16154;DHT22;8182;55.648;13.208;2024-01-06T09:50:19;-6.10;1.00
16154;DHT22;8182;55.648;13.208;2024-01-06T09:52:47;-6.60;1.00
16154;DHT22;8182;55.648;13.208;2024-01-06T09:55:24;-6.40;1.00
16154;DHT22;8182;55.648;13.208;2024-01-06T09:57:52;-6.50;1.00
16154;DHT22;8182;55.648;13.208;2024-01-06T10:00:20;-6.40;1.00
16154;DHT22;8182;55.648;13.208;2024-01-06T10:02:47;-6.40;1.00
16154;DHT22;8182;55.648;13.208;2024-01-06T10:05:15;-6.60;1.00
16154;DHT22;8182;55.648;13.208;2024-01-06T10:07:44;-6.40;1.00
16154;DHT22;8182;55.648;13.208;2024-01-06T10:10:11;-6.20;1.00
16154;DHT22;8182;55.648;13.208;2024-01-06T10:12:39;-6.40;1.00
16154;DHT22;8182;55.648;13.208;2024-01-06T10:15:07;-6.20;1.00
16154;DHT22;8182;55.648;13.208;2024-01-06T10:17:36;-6.30;1.00
16154;DHT22;8182;55.648;13.208;2024-01-06T10:20:06;-6.10;1.00
16154;DHT22;8182;55.648;13.208;2024-01-06T10:22:35;-6.00;1.00
16154;DHT22;8182;55.648;13.208;2024-01-06T10:25:06;-6.10;1.00
16154;DHT22;8182;55.648;13.208;2024-01-06T10:27:35;-5.90;1.00
16154;DHT22;8182;55.648;13.208;2024-01-06T10:30:02;-6.00;1.00
16154;DHT22;8182;55.648;13.208;2024-01-06T10:32:31;-6.00;1.00
16154;DHT22;8182;55.648;13.208;2024-01-06T10:34:59;-5.90;1.00
16154;DHT22;8182;55.648;13.208;2024-01-06T10:37:27;-6.10;1.00
16154;DHT22;8182;55.648;13.208;2024-01-06T10:40:07;-6.10;1.00
16154;DHT22;8182;55.648;13.208;2024-01-06T10:42:35;-6.10;1.00
16154;DHT22;8182;55.648;13.208;2024-01-06T10:45:05;-6.30;1.00
16154;DHT22;8182;55.648;13.208;2024-01-06T10:47:34;-6.30;1.00
16154;DHT22;8182;55.648;13.208;2024-01-06T10:50:02;-5.90;1.00
16154;DHT22;8182;55.648;13.208;2024-01-06T10:52:32;-5.90;1.00
16154;DHT22;8182;55.648;13.208;2024-01-06T10:55:02;-6.20;1.00
16154;DHT22;8182;55.648;13.208;2024-01-06T10:57:32;-6.40;1.00
16154;DHT22;8182;55.648;13.208;2024-01-06T11:00:00;-6.20;1.00
16154;DHT22;8182;55.648;13.208;2024-01-06T11:02:31;-6.30;1.00
16154;DHT22;8182;55.648;13.208;2024-01-06T11:05:01;-6.10;1.00
16154;DHT22;8182;55.648;13.208;2024-01-06T11:07:28;-5.80;1.00
16154;DHT22;8182;55.648;13.208;2024-01-06T11:10:04;-5.80;1.00
16154;DHT22;8182;55.648;13.208;2024-01-06T11:12:34;-5.70;1.00
16154;DHT22;8182;55.648;13.208;2024-01-06T11:15:04;-5.90;1.00
16154;DHT22;8182;55.648;13.208;2024-01-06T11:17:50;-5.90;1.00
16154;DHT22;8182;55.648;13.208;2024-01-06T11:20:19;-6.10;1.00
16154;DHT22;8182;55.648;13.208;2024-01-06T11:22:47;-5.90;1.00
16154;DHT22;8182;55.648;13.208;2024-01-06T11:25:15;-5.80;1.00
16154;DHT22;8182;55.648;13.208;2024-01-06T11:27:45;-6.00;1.00
16154;DHT22;8182;55.648;13.208;2024-01-06T11:30:20;-6.00;1.00
16154;DHT22;8182;55.648;13.208;2024-01-06T11:32:47;-6.00;1.00
16154;DHT22;8182;55.648;13.208;2024-01-06T11:35:15;-6.00;1.00
16154;DHT22;8182;55.648;13.208;2024-01-06T11:37:55;-6.20;1.00
16154;DHT22;8182;55.648;13.208;2024-01-06T11:40:33;-5.90;1.00
16154;DHT22;8182;55.648;13.208;2024-01-06T11:43:04;-5.90;1.00
16154;DHT22;8182;55.648;13.208;2024-01-06T11:45:32;-5.80;1.00
16154;DHT22;8182;55.648;13.208;2024-01-06T11:48:00;-5.80;1.00
16154;DHT22;8182;55.648;13.208;2024-01-06T11:50:29;-6.10;1.00
16154;DHT22;8182;55.648;13.208;2024-01-06T11:52:56;-6.10;1.00
16154;DHT22;8182;55.648;13.208;2024-01-06T11:55:28;-6.10;1.00
16154;DHT22;8182;55.648;13.208;2024-01-06T11:57:57;-6.10;1.00
16154;DHT22;8182;55.648;13.208;2024-01-06T12:00:29;-6.00;1.00
16154;DHT22;8182;55.648;13.208;2024-01-06T12:02:56;-5.70;1.00
16154;DHT22;8182;55.648;13.208;2024-01-06T12:05:24;-5.30;1.00
16154;DHT22;8182;55.648;13.208;2024-01-06T12:07:58;-5.30;1.00
16154;DHT22;8182;55.648;13.208;2024-01-06T12:10:27;-5.20;1.00
16154;DHT22;8182;55.648;13.208;2024-01-06T12:12:58;-5.30;1.00
16154;DHT22;8182;55.648;13.208;2024-01-06T12:15:30;-5.20;1.00
16154;DHT22;8182;55.648;13.208;2024-01-06T12:17:58;-5.20;1.00
16154;DHT22;8182;55.648;13.208;2024-01-06T12:20:26;-5.10;1.00
16154;DHT22;8182;55.648;13.208;2024-01-06T12:22:55;-5.20;1.00
16154;DHT22;8182;55.648;13.208;2024-01-06T12:25:28;-5.00;1.00
16154;DHT22;8182;55.648;13.208;2024-01-06T12:28:01;-5.10;1.00
16154;DHT22;8182;55.648;13.208;2024-01-06T12:30:29;-5.20;1.00
16154;DHT22;8182;55.648;13.208;2024-01-06T12:32:57;-5.10;1.00
16154;DHT22;8182;55.648;13.208;2024-01-06T12:35:24;-5.20;1.00
16154;DHT22;8182;55.648;13.208;2024-01-06T12:37:51;-5.10;1.00
16154;DHT22;8182;55.648;13.208;2024-01-06T12:40:19;-5.20;1.00
16154;DHT22;8182;55.648;13.208;2024-01-06T12:42:47;-5.10;1.00
16154;DHT22;8182;55.648;13.208;2024-01-06T12:45:14;-5.10;1.00
16154;DHT22;8182;55.648;13.208;2024-01-06T12:47:43;-5.10;1.00
16154;DHT22;8182;55.648;13.208;2024-01-06T12:50:10;-5.20;1.00
16154;DHT22;8182;55.648;13.208;2024-01-06T12:52:37;-5.30;1.00
16154;DHT22;8182;55.648;13.208;2024-01-06T12:55:05;-5.40;1.00
16154;DHT22;8182;55.648;13.208;2024-01-06T12:57:32;-5.50;1.00
16154;DHT22;8182;55.648;13.208;2024-01-06T12:59:59;-5.40;1.00
16154;DHT22;8182;55.648;13.208;2024-01-06T13:02:26;-5.20;1.00
16154;DHT22;8182;55.648;13.208;2024-01-06T13:04:57;-5.00;1.00
16154;DHT22;8182;55.648;13.208;2024-01-06T13:07:24;-4.90;1.00
16154;DHT22;8182;55.648;13.208;2024-01-06T13:09:51;-5.00;1.00
16154;DHT22;8182;55.648;13.208;2024-01-06T13:12:18;-5.00;1.00
16154;DHT22;8182;55.648;13.208;2024-01-06T13:14:45;-5.10;1.00
16154;DHT22;8182;55.648;13.208;2024-01-06T13:17:13;-5.10;1.00
16154;DHT22;8182;55.648;13.208;2024-01-06T13:19:40;-5.10;1.00
16154;DHT22;8182;55.648;13.208;2024-01-06T13:22:09;-5.10;1.00
16154;DHT22;8182;55.648;13.208;2024-01-06T13:24:36;-5.10;1.00
16154;DHT22;8182;55.648;13.208;2024-01-06T13:27:06;-5.10;1.00
16154;DHT22;8182;55.648;13.208;2024-01-06T13:29:32;-5.30;1.00
16154;DHT22;8182;55.648;13.208;2024-01-06T13:32:00;-5.40;1.00
16154;DHT22;8182;55.648;13.208;2024-01-06T13:34:27;-5.50;1.00
16154;DHT22;8182;55.648;13.208;2024-01-06T13:36:58;-5.50;1.00
16154;DHT22;8182;55.648;13.208;2024-01-06T13:39:26;-5.50;1.00
16154;DHT22;8182;55.648;13.208;2024-01-06T13:41:53;-5.60;1.00
16154;DHT22;8182;55.648;13.208;2024-01-06T13:44:20;-5.60;1.00
16154;DHT22;8182;55.648;13.208;2024-01-06T13:46:48;-5.50;1.00
16154;DHT22;8182;55.648;13.208;2024-01-06T13:49:20;-5.60;1.00
16154;DHT22;8182;55.648;13.208;2024-01-06T13:51:47;-5.60;1.00
16154;DHT22;8182;55.648;13.208;2024-01-06T13:54:14;-5.70;1.00
16154;DHT22;8182;55.648;13.208;2024-01-06T13:56:43;-5.70;1.00
16154;DHT22;8182;55.648;13.208;2024-01-06T13:59:09;-5.50;1.00
16154;DHT22;8182;55.648;13.208;2024-01-06T14:01:36;-5.50;1.00
16154;DHT22;8182;55.648;13.208;2024-01-06T14:04:03;-5.50;1.00
16154;DHT22;8182;55.648;13.208;2024-01-06T14:06:31;-5.60;1.00
16154;DHT22;8182;55.648;13.208;2024-01-06T14:08:59;-5.60;1.00
16154;DHT22;8182;55.648;13.208;2024-01-06T14:11:27;-5.60;1.00
16154;DHT22;8182;55.648;13.208;2024-01-06T14:13:58;-5.40;1.00
16154;DHT22;8182;55.648;13.208;2024-01-06T14:16:24;-5.60;1.00
16154;DHT22;8182;55.648;13.208;2024-01-06T14:18:52;-5.60;1.00
16154;DHT22;8182;55.648;13.208;2024-01-06T14:21:19;-5.60;1.00
16154;DHT22;8182;55.648;13.208;2024-01-06T14:23:46;-5.70;1.00
16154;DHT22;8182;55.648;13.208;2024-01-06T14:26:13;-5.80;1.00
16154;DHT22;8182;55.648;13.208;2024-01-06T14:28:40;-5.90;1.00
16154;DHT22;8182;55.648;13.208;2024-01-06T14:31:12;-5.80;1.00
16154;DHT22;8182;55.648;13.208;2024-01-06T14:33:39;-5.80;1.00
16154;DHT22;8182;55.648;13.208;2024-01-06T14:36:07;-5.80;1.00
16154;DHT22;8182;55.648;13.208;2024-01-06T14:38:34;-5.90;1.00
16154;DHT22;8182;55.648;13.208;2024-01-06T14:41:01;-6.00;1.00
16154;DHT22;8182;55.648;13.208;2024-01-06T14:43:28;-6.00;1.00
16154;DHT22;8182;55.648;13.208;2024-01-06T14:45:58;-5.90;1.00
16154;DHT22;8182;55.648;13.208;2024-01-06T14:48:26;-6.00;1.00
16154;DHT22;8182;55.648;13.208;2024-01-06T14:50:53;-6.00;1.00
16154;DHT22;8182;55.648;13.208;2024-01-06T14:53:20;-6.10;1.00
16154;DHT22;8182;55.648;13.208;2024-01-06T14:55:47;-6.00;1.00
16154;DHT22;8182;55.648;13.208;2024-01-06T14:58:14;-6.00;1.00
16154;DHT22;8182;55.648;13.208;2024-01-06T15:00:41;-6.20;1.00
16154;DHT22;8182;55.648;13.208;2024-01-06T15:03:08;-6.10;1.00
16154;DHT22;8182;55.648;13.208;2024-01-06T15:05:37;-6.00;1.00
16154;DHT22;8182;55.648;13.208;2024-01-06T15:08:04;-6.10;1.00
16154;DHT22;8182;55.648;13.208;2024-01-06T15:10:31;-6.10;1.00
16154;DHT22;8182;55.648;13.208;2024-01-06T15:12:59;-6.00;1.00
16154;DHT22;8182;55.648;13.208;2024-01-06T15:15:29;-6.10;1.00
16154;DHT22;8182;55.648;13.208;2024-01-06T15:17:58;-6.20;1.00
16154;DHT22;8182;55.648;13.208;2024-01-06T15:20:28;-6.10;1.00
16154;DHT22;8182;55.648;13.208;2024-01-06T15:22:59;-6.10;1.00
16154;DHT22;8182;55.648;13.208;2024-01-06T15:25:26;-6.00;1.00
16154;DHT22;8182;55.648;13.208;2024-01-06T15:27:53;-6.10;1.00
16154;DHT22;8182;55.648;13.208;2024-01-06T15:30:20;-6.30;1.00
16154;DHT22;8182;55.648;13.208;2024-01-06T15:32:48;-6.30;1.00
16154;DHT22;8182;55.648;13.208;2024-01-06T15:35:15;-6.30;1.00
16154;DHT22;8182;55.648;13.208;2024-01-06T15:37:42;-6.20;1.00
16154;DHT22;8182;55.648;13.208;2024-01-06T15:40:11;-6.20;1.00
16154;DHT22;8182;55.648;13.208;2024-01-06T15:42:38;-6.20;1.00
16154;DHT22;8182;55.648;13.208;2024-01-06T15:45:06;-6.10;1.00
16154;DHT22;8182;55.648;13.208;2024-01-06T15:47:35;-6.20;1.00
16154;DHT22;8182;55.648;13.208;2024-01-06T15:50:02;-6.20;1.00